Time;durP1;ratioP1;P1;durP2;ratioP2;P2;SDS_P1;SDS_P2;PMS_P1;PMS_P2;Temp;Humidity;BMP_temperature;BMP_pressure;BME280_temperature;BME280_humidity;BME280_pressure;Samples;Min_cycle;Max_cycle;Signal;HPM_P1;HPM_P2
2022/03/30 00:00:44;;;;;;;19.03;9.03;;;;;;;12.97;62.00;98911.09;5113841;28;20197;-52
2022/03/30 00:03:11;;;;;;;16.33;9.00;;;;;;;12.96;62.16;98906.81;5114098;28;20693;-52
2022/03/30 00:05:38;;;;;;;16.10;8.60;;;;;;;12.91;62.85;98907.03;5113566;28;20198;-51
2022/03/30 00:08:06;;;;;;;17.87;9.20;;;;;;;12.81;62.98;98903.16;5113590;28;20202;-51
2022/03/30 00:10:33;;;;;;;14.03;9.57;;;;;;;12.66;63.60;98890.88;5114063;28;20271;-51
2022/03/30 00:13:01;;;;;;;15.60;9.50;;;;;;;12.79;63.51;98896.34;5113681;28;20187;-50
2022/03/30 00:15:29;;;;;;;13.40;8.70;;;;;;;12.79;63.46;98894.56;5113628;28;20234;-52
2022/03/30 00:17:58;;;;;;;17.10;9.27;;;;;;;12.67;64.03;98903.81;5113412;28;20738;-50
2022/03/30 00:20:24;;;;;;;14.67;9.60;;;;;;;12.62;64.12;98904.97;5113721;28;20194;-51
2022/03/30 00:22:51;;;;;;;15.57;9.37;;;;;;;12.51;64.56;98909.81;5113533;28;20263;-53
2022/03/30 00:25:18;;;;;;;14.33;9.70;;;;;;;12.48;64.28;98909.97;5113391;28;20198;-53
2022/03/30 00:27:46;;;;;;;18.17;10.10;;;;;;;12.45;64.30;98912.69;5113128;28;20199;-52
2022/03/30 00:30:15;;;;;;;16.37;10.03;;;;;;;12.49;64.18;98919.44;5113207;28;20225;-53
2022/03/30 00:32:42;;;;;;;18.63;10.33;;;;;;;12.45;64.64;98910.94;5113140;28;20198;-52
2022/03/30 00:35:11;;;;;;;16.90;10.93;;;;;;;12.29;64.74;98904.75;5113119;28;20199;-52
2022/03/30 00:37:38;;;;;;;19.03;10.27;;;;;;;12.13;65.79;98906.34;5111743;28;20194;-52
2022/03/30 00:40:08;;;;;;;18.67;9.87;;;;;;;11.95;66.21;98898.47;5113044;28;20194;-51
2022/03/30 00:42:35;;;;;;;17.50;10.00;;;;;;;11.90;66.63;98895.22;5113334;28;20281;-52
2022/03/30 00:45:09;;;;;;;19.07;10.30;;;;;;;11.75;66.55;98887.19;5113335;28;20206;-50
2022/03/30 00:47:37;;;;;;;18.13;10.30;;;;;;;11.84;66.46;98899.84;5112839;28;20194;-51
2022/03/30 00:50:05;;;;;;;14.87;10.33;;;;;;;11.68;66.54;98881.44;5113032;28;20214;-53
2022/03/30 00:52:33;;;;;;;25.67;11.37;;;;;;;11.64;66.72;98901.50;5112946;28;20249;-53
2022/03/30 00:55:00;;;;;;;21.30;10.93;;;;;;;11.58;67.14;98898.31;5113054;28;20639;-53
2022/03/30 00:57:30;;;;;;;20.80;11.57;;;;;;;11.47;67.36;98895.34;5112770;28;20589;-52
2022/03/30 00:59:58;;;;;;;21.50;10.40;;;;;;;11.37;67.84;98894.03;5112581;28;20281;-52
2022/03/30 01:02:25;;;;;;;19.00;11.20;;;;;;;11.29;67.21;98881.34;5112637;28;20674;-52
2022/03/30 01:04:52;;;;;;;20.80;12.33;;;;;;;11.34;67.55;98888.97;5112191;28;20201;-53
2022/03/30 01:07:19;;;;;;;24.83;12.30;;;;;;;11.28;66.67;98890.94;5112709;28;20199;-52
2022/03/30 01:09:47;;;;;;;25.87;12.77;;;;;;;11.12;66.79;98869.09;5112318;28;20201;-52
2022/03/30 01:12:15;;;;;;;20.67;12.30;;;;;;;11.07;66.78;98883.16;5112613;28;20201;-52
2022/03/30 01:14:42;;;;;;;27.90;12.97;;;;;;;11.13;66.26;98885.50;5112631;28;20566;-52
2022/03/30 01:17:09;;;;;;;14.33;12.10;;;;;;;11.11;66.54;98890.75;5112276;28;20327;-51
2022/03/30 01:19:37;;;;;;;24.53;13.30;;;;;;;11.02;67.54;98892.91;5112345;28;20201;-52
2022/03/30 01:22:08;;;;;;;19.27;12.23;;;;;;;10.84;69.48;98884.06;5112712;28;20316;-52
2022/03/30 01:24:35;;;;;;;24.73;13.60;;;;;;;11.03;68.17;98894.59;5112687;28;20221;-51
2022/03/30 01:27:03;;;;;;;23.87;13.50;;;;;;;11.21;66.85;98888.63;5112678;28;20575;-53
2022/03/30 01:32:28;;;;;;;17.57;12.73;;;;;;;11.16;66.36;98878.44;5112252;28;20285;-52
2022/03/30 01:34:57;;;;;;;23.07;13.07;;;;;;;11.17;66.39;98884.50;5111911;28;20587;-52
2022/03/30 01:37:28;;;;;;;22.47;12.93;;;;;;;11.20;66.32;98887.78;5112277;28;20229;-51
2022/03/30 01:39:56;;;;;;;21.63;13.90;;;;;;;11.26;65.70;98884.09;5111855;28;20198;-51
2022/03/30 01:42:24;;;;;;;21.53;12.93;;;;;;;11.26;66.07;98889.28;5111856;28;20224;-49
2022/03/30 01:44:52;;;;;;;18.67;12.97;;;;;;;11.24;65.84;98893.72;5111672;28;20211;-51
2022/03/30 01:47:19;;;;;;;24.80;14.30;;;;;;;11.12;66.30;98899.41;5111658;28;20651;-51
2022/03/30 01:49:47;;;;;;;20.43;13.10;;;;;;;11.00;66.43;98907.69;5111405;28;20277;-52
2022/03/30 01:52:16;;;;;;;21.33;13.73;;;;;;;10.84;66.81;98894.44;5111718;28;20580;-53
2022/03/30 01:54:45;;;;;;;19.27;14.40;;;;;;;10.86;66.84;98901.28;5111553;28;20209;-51
2022/03/30 01:57:13;;;;;;;21.43;15.20;;;;;;;10.85;66.59;98902.19;5111517;28;20289;-52
2022/03/30 01:59:41;;;;;;;22.77;15.40;;;;;;;10.77;67.21;98904.25;5111450;28;20194;-51
2022/03/30 02:02:08;;;;;;;21.70;13.90;;;;;;;10.80;67.50;98908.47;5111791;28;20194;-52
2022/03/30 02:04:36;;;;;;;25.23;14.80;;;;;;;10.91;67.22;98901.97;5111845;28;20667;-53
2022/03/30 02:07:04;;;;;;;22.37;14.90;;;;;;;10.81;66.73;98908.44;5111596;28;20698;-53
2022/03/30 02:09:32;;;;;;;24.47;15.13;;;;;;;10.79;67.56;98902.44;5111407;28;20199;-52
2022/03/30 02:12:01;;;;;;;21.50;14.37;;;;;;;10.71;67.73;98904.50;5111200;28;20598;-52
2022/03/30 02:14:28;;;;;;;25.17;15.33;;;;;;;10.71;68.28;98912.28;5111350;28;20186;-52
2022/03/30 02:16:55;;;;;;;22.47;14.47;;;;;;;10.66;68.05;98901.22;5111030;28;20226;-52
2022/03/30 02:19:22;;;;;;;19.33;14.60;;;;;;;10.67;67.50;98897.72;5111148;28;20190;-52
2022/03/30 02:21:49;;;;;;;23.90;15.67;;;;;;;10.65;67.46;98903.88;5111213;28;20209;-52
2022/03/30 02:24:16;;;;;;;26.63;15.30;;;;;;;10.66;67.39;98906.41;5110976;28;20198;-52
2022/03/30 02:26:43;;;;;;;29.50;15.27;;;;;;;10.55;68.05;98900.81;5111031;28;20295;-52
2022/03/30 02:29:11;;;;;;;28.03;16.03;;;;;;;10.45;69.16;98902.06;5111140;28;20285;-52
2022/03/30 02:31:38;;;;;;;38.67;16.53;;;;;;;10.34;70.18;98915.44;5111288;28;20226;-51
2022/03/30 02:34:05;;;;;;;29.80;16.83;;;;;;;10.29;70.63;98917.34;5110925;28;20199;-52
2022/03/30 02:36:32;;;;;;;35.10;16.97;;;;;;;10.22;72.04;98905.50;5111113;28;20217;-53
2022/03/30 02:38:59;;;;;;;29.40;16.50;;;;;;;10.16;71.76;98916.06;5110812;28;20194;-53
2022/03/30 02:41:26;;;;;;;31.43;16.60;;;;;;;10.05;72.78;98920.78;5110770;28;20187;-54
2022/03/30 02:43:53;;;;;;;32.23;16.10;;;;;;;10.04;73.92;98912.19;5111022;28;20852;-51
2022/03/30 02:46:22;;;;;;;36.40;16.63;;;;;;;9.99;72.93;98906.31;5111100;28;20230;-51
2022/03/30 02:48:49;;;;;;;33.73;16.77;;;;;;;9.91;72.70;98916.13;5110688;28;20194;-52
2022/03/30 02:51:16;;;;;;;27.80;17.57;;;;;;;9.90;72.79;98909.25;5110547;28;20231;-51
2022/03/30 02:53:43;;;;;;;31.37;17.17;;;;;;;9.91;72.59;98905.75;5110770;28;20236;-51
2022/03/30 02:56:10;;;;;;;30.00;17.80;;;;;;;9.98;72.67;98917.59;5110757;28;20201;-51
2022/03/30 02:58:37;;;;;;;38.83;17.57;;;;;;;9.95;72.38;98912.50;5110558;28;20301;-53
2022/03/30 03:01:04;;;;;;;31.00;17.23;;;;;;;9.87;72.79;98908.50;5109943;28;20663;-52
2022/03/30 03:03:33;;;;;;;35.53;17.40;;;;;;;9.71;73.89;98903.00;5110621;28;20264;-52
2022/03/30 03:06:00;;;;;;;28.43;16.67;;;;;;;9.74;73.93;98913.28;5110292;28;20585;-51
2022/03/30 03:08:27;;;;;;;32.53;17.10;;;;;;;9.72;74.18;98908.13;5110465;28;20299;-53
2022/03/30 03:10:54;;;;;;;32.70;17.60;;;;;;;9.76;73.99;98911.47;5110139;28;20218;-53
2022/03/30 03:13:21;;;;;;;27.87;17.23;;;;;;;9.78;73.87;98914.88;5110432;28;20190;-53
2022/03/30 03:15:48;;;;;;;24.00;17.63;;;;;;;9.78;73.84;98915.72;5110272;28;20229;-51
2022/03/30 03:18:15;;;;;;;34.77;19.43;;;;;;;9.71;74.29;98918.56;5110494;28;20194;-51
2022/03/30 03:20:46;;;;;;;37.57;18.40;;;;;;;9.70;74.76;98909.97;5110368;28;20194;-51
2022/03/30 03:23:14;;;;;;;30.40;19.53;;;;;;;9.81;73.92;98907.84;5110481;28;20205;-52
2022/03/30 03:25:41;;;;;;;32.53;19.93;;;;;;;9.88;74.01;98911.03;5110305;28;20205;-52
2022/03/30 03:28:09;;;;;;;33.07;18.30;;;;;;;9.91;73.54;98913.53;5110071;28;20198;-52
2022/03/30 03:30:36;;;;;;;37.83;18.73;;;;;;;9.74;74.27;98908.09;5119458;28;20209;-51
2022/03/30 03:33:03;;;;;;;29.77;17.70;;;;;;;9.71;74.64;98910.78;5115265;28;20260;-52
2022/03/30 03:35:31;;;;;;;30.27;17.60;;;;;;;9.56;75.53;98912.16;5114713;28;20224;-52
2022/03/30 03:38:00;;;;;;;30.57;19.27;;;;;;;9.45;76.24;98916.88;5116812;28;20301;-51
2022/03/30 03:40:30;;;;;;;30.57;18.70;;;;;;;9.43;76.39;98913.47;5117520;28;20267;-51
2022/03/30 03:42:57;;;;;;;36.23;19.70;;;;;;;9.29;76.86;98911.34;5118490;27;20221;-52
2022/03/30 03:45:25;;;;;;;41.30;22.60;;;;;;;9.29;75.03;98920.84;5119410;28;20718;-52
2022/03/30 03:47:52;;;;;;;39.00;22.23;;;;;;;9.33;75.04;98920.72;5114413;28;20285;-51
2022/03/30 03:50:20;;;;;;;44.37;23.63;;;;;;;9.33;73.63;98922.47;5123062;28;20305;-52
2022/03/30 03:52:48;;;;;;;44.37;26.13;;;;;;;9.29;74.29;98921.72;5129040;27;20226;-51
2022/03/30 03:55:16;;;;;;;38.13;24.80;;;;;;;9.25;73.66;98920.13;5129534;28;20251;-51
2022/03/30 03:57:43;;;;;;;41.90;22.40;;;;;;;9.19;73.97;98927.25;5103850;28;20214;-50
2022/03/30 04:00:13;;;;;;;41.00;19.90;;;;;;;9.13;74.16;98924.88;5097384;28;20232;-51
2022/03/30 04:02:40;;;;;;;32.63;18.60;;;;;;;9.16;74.05;98922.16;5107449;28;20301;-52
2022/03/30 04:05:09;;;;;;;28.27;18.33;;;;;;;9.19;74.36;98924.66;5129035;27;20221;-52
2022/03/30 04:07:37;;;;;;;33.37;18.30;;;;;;;9.16;73.16;98924.75;5111458;28;20234;-52
2022/03/30 04:10:06;;;;;;;39.40;18.10;;;;;;;9.10;74.06;98910.28;5108285;28;20596;-51
2022/03/30 04:12:34;;;;;;;39.97;18.37;;;;;;;9.24;73.99;98915.84;5111268;27;20678;-54
2022/03/30 04:15:02;;;;;;;33.10;18.13;;;;;;;9.29;73.79;98921.72;5112964;28;20678;-48
2022/03/30 04:17:29;;;;;;;39.30;19.13;;;;;;;9.43;73.17;98914.34;5110841;28;20230;-54
2022/03/30 04:19:56;;;;;;;39.20;18.17;;;;;;;9.41;72.94;98920.44;5112417;28;20298;-50
2022/03/30 04:22:23;;;;;;;35.73;17.07;;;;;;;9.45;73.34;98917.72;5112595;28;20280;-50
2022/03/30 04:24:50;;;;;;;34.50;18.87;;;;;;;9.52;72.85;98915.75;5112697;28;20692;-53
2022/03/30 04:27:17;;;;;;;29.97;18.80;;;;;;;9.62;72.22;98918.88;5112423;28;20204;-53
2022/03/30 04:29:45;;;;;;;44.53;19.97;;;;;;;9.71;72.09;98923.72;5114105;27;20201;-46
2022/03/30 04:32:12;;;;;;;42.63;21.80;;;;;;;9.82;72.39;98919.03;5121624;27;20240;-48
2022/03/30 04:34:39;;;;;;;63.70;26.40;;;;;;;9.93;71.58;98927.25;5130977;27;20198;-51
2022/03/30 04:37:06;;;;;;;53.97;25.07;;;;;;;9.99;70.84;98934.00;5133681;27;20194;-52
2022/03/30 04:39:33;;;;;;;62.80;27.33;;;;;;;10.01;70.84;98937.38;5133526;27;20285;-51
2022/03/30 04:42:01;;;;;;;67.77;28.70;;;;;;;10.06;70.97;98941.47;5133560;27;20190;-52
2022/03/30 04:44:28;;;;;;;59.37;26.00;;;;;;;10.13;70.63;98932.59;5133524;27;20198;-51
2022/03/30 04:46:56;;;;;;;57.27;25.63;;;;;;;10.19;70.57;98941.94;5133793;27;20565;-50
2022/03/30 04:49:23;;;;;;;56.60;24.00;;;;;;;10.29;69.22;98937.25;5133667;27;20776;-51
2022/03/30 04:51:50;;;;;;;51.17;22.57;;;;;;;10.40;69.15;98935.09;5133302;27;20585;-50
2022/03/30 04:54:18;;;;;;;55.50;24.07;;;;;;;10.51;68.38;98930.34;5133411;27;20285;-51
2022/03/30 04:56:45;;;;;;;51.50;24.23;;;;;;;10.59;67.68;98932.69;5112907;27;20280;-53
2022/03/30 04:59:12;;;;;;;56.00;24.57;;;;;;;10.72;67.98;98941.69;5092065;28;20215;-53
2022/03/30 05:01:39;;;;;;;56.30;24.57;;;;;;;10.88;67.25;98948.81;5092250;28;20634;-50
2022/03/30 05:04:08;;;;;;;63.10;25.37;;;;;;;10.80;67.37;98932.69;5092541;28;20219;-52
2022/03/30 05:06:35;;;;;;;55.70;24.10;;;;;;;10.95;66.28;98933.81;5112714;28;20254;-52
2022/03/30 05:09:02;;;;;;;45.80;22.03;;;;;;;11.13;65.82;98945.25;5112716;28;20430;-51
2022/03/30 05:11:31;;;;;;;41.67;19.90;;;;;;;11.28;64.33;98947.22;5112489;28;20214;-51
2022/03/30 05:13:58;;;;;;;57.40;23.17;;;;;;;11.66;63.19;98937.81;5112700;28;20195;-51
2022/03/30 05:16:26;;;;;;;50.47;21.37;;;;;;;12.28;61.29;98940.34;5112536;28;20246;-52
2022/03/30 05:18:52;;;;;;;55.20;22.77;;;;;;;13.53;57.35;98942.25;5112510;28;20627;-51
2022/03/30 05:21:21;;;;;;;40.67;21.97;;;;;;;14.60;53.32;98945.34;5112193;28;20196;-52
2022/03/30 05:23:48;;;;;;;58.50;23.30;;;;;;;15.75;50.38;98944.97;5111769;28;20198;-51
2022/03/30 05:26:15;;;;;;;56.83;23.50;;;;;;;16.76;46.96;98942.28;5112764;28;20198;-52
2022/03/30 05:28:42;;;;;;;56.33;23.03;;;;;;;17.79;44.30;98959.16;5112498;28;20191;-52
2022/03/30 05:31:09;;;;;;;50.30;23.10;;;;;;;18.62;42.09;98949.91;5112008;28;20195;-51
2022/03/30 05:33:36;;;;;;;56.37;25.33;;;;;;;19.07;40.73;98955.47;5112314;28;20201;-52
2022/03/30 05:36:03;;;;;;;62.23;25.77;;;;;;;19.45;39.57;98953.47;5111924;28;20658;-52
2022/03/30 05:38:32;;;;;;;66.60;24.50;;;;;;;19.67;39.19;98954.53;5112135;28;20194;-54
2022/03/30 05:40:59;;;;;;;55.53;25.57;;;;;;;19.93;38.77;98950.78;5112199;28;20727;-52
2022/03/30 05:43:26;;;;;;;61.05;24.38;;;;;;;20.30;37.62;98959.34;5112252;28;20674;-51
2022/03/30 05:45:53;;;;;;;66.50;24.98;;;;;;;20.41;37.21;98966.47;5112005;28;20193;-52
2022/03/30 05:48:21;;;;;;;57.85;23.70;;;;;;;20.52;36.77;98962.03;5112001;28;20198;-53
2022/03/30 05:50:51;;;;;;;55.80;24.02;;;;;;;20.60;36.47;98958.78;5112129;28;20194;-52
2022/03/30 05:53:18;;;;;;;49.38;25.20;;;;;;;21.08;36.03;98966.41;5112123;28;20307;-52
2022/03/30 05:55:46;;;;;;;52.63;26.88;;;;;;;21.17;35.84;98965.66;5111897;28;20299;-52
2022/03/30 05:58:14;;;;;;;48.53;25.23;;;;;;;21.55;34.91;98966.03;5111918;28;20673;-52
2022/03/30 06:00:41;;;;;;;47.45;22.58;;;;;;;21.74;34.14;98974.09;5111678;28;20199;-52
2022/03/30 06:03:10;;;;;;;49.53;22.38;;;;;;;21.60;34.25;98969.13;5111468;28;20202;-52
2022/03/30 06:05:37;;;;;;;42.67;20.67;;;;;;;21.82;33.87;98968.16;5111797;28;20198;-52
2022/03/30 06:08:04;;;;;;;33.55;18.95;;;;;;;21.85;33.97;98953.88;5111360;28;20197;-52
2022/03/30 06:10:31;;;;;;;30.20;18.75;;;;;;;22.61;32.64;98955.25;5111582;28;20728;-52
2022/03/30 06:13:01;;;;;;;36.05;18.70;;;;;;;22.92;32.06;98948.13;5111299;28;20225;-52
2022/03/30 06:15:28;;;;;;;27.50;18.90;;;;;;;23.47;31.64;98946.69;5111200;28;20238;-52
2022/03/30 06:17:56;;;;;;;34.97;17.95;;;;;;;24.00;30.43;98941.78;5111342;28;20205;-52
2022/03/30 06:20:24;;;;;;;33.30;18.58;;;;;;;24.31;30.32;98950.38;5111610;28;20688;-52
2022/03/30 06:22:52;;;;;;;26.88;17.90;;;;;;;24.52;29.92;98948.34;5111442;28;20626;-53
2022/03/30 06:25:21;;;;;;;43.97;18.30;;;;;;;25.14;29.11;98948.59;5111170;28;20543;-52
2022/03/30 06:27:48;;;;;;;37.45;19.55;;;;;;;25.66;28.65;98950.44;5111024;28;20562;-53
2022/03/30 06:30:16;;;;;;;40.42;18.50;;;;;;;26.02;28.20;98956.53;5110945;28;20693;-53
2022/03/30 06:32:46;;;;;;;43.40;20.23;;;;;;;26.10;28.11;98962.91;5111075;28;20306;-52
2022/03/30 06:35:13;;;;;;;38.72;20.50;;;;;;;25.98;27.99;98962.31;5110870;28;20243;-52
2022/03/30 06:37:40;;;;;;;41.58;19.67;;;;;;;25.73;28.68;98963.97;5110865;28;20198;-52
2022/03/30 06:40:08;;;;;;;33.30;18.67;;;;;;;26.56;27.67;98959.03;5110817;28;20206;-52
2022/03/30 06:42:37;;;;;;;30.40;19.10;;;;;;;27.23;27.16;98974.13;5110945;28;20273;-52
2022/03/30 06:45:06;;;;;;;45.95;20.02;;;;;;;27.36;26.48;98971.00;5110974;28;20194;-52
2022/03/30 06:47:35;;;;;;;35.13;18.85;;;;;;;27.07;26.74;98972.28;5110922;28;20644;-52
2022/03/30 06:50:02;;;;;;;42.30;18.27;;;;;;;27.26;26.76;98979.16;5110801;28;20195;-52
2022/03/30 06:52:31;;;;;;;31.33;19.50;;;;;;;27.66;26.41;98966.88;5110719;28;20268;-51
2022/03/30 06:54:59;;;;;;;37.53;19.35;;;;;;;28.07;25.50;98971.22;5110551;28;20236;-52
2022/03/30 06:57:26;;;;;;;28.15;19.48;;;;;;;28.15;25.66;98989.06;5110609;28;20564;-52
2022/03/30 06:59:53;;;;;;;38.55;18.98;;;;;;;28.44;25.73;98983.22;5110772;28;20201;-52
2022/03/30 07:02:20;;;;;;;47.88;19.20;;;;;;;28.50;25.53;98980.66;5110644;28;20201;-52
2022/03/30 07:04:48;;;;;;;39.90;18.35;;;;;;;29.29;24.89;98980.69;5110605;28;20198;-53
2022/03/30 07:10:18;;;;;;;34.83;17.83;;;;;;;28.28;25.44;98991.22;5110694;28;20299;-53
2022/03/30 07:12:46;;;;;;;48.88;18.63;;;;;;;27.29;26.37;98984.16;5110547;28;20702;-53
2022/03/30 07:15:15;;;;;;;40.13;18.25;;;;;;;26.94;26.96;98977.22;5110473;28;20230;-52
2022/03/30 07:17:47;;;;;;;38.35;18.73;;;;;;;26.58;27.30;98973.88;5110465;28;20223;-52
2022/03/30 07:20:16;;;;;;;37.35;21.90;;;;;;;26.75;26.96;98972.94;5110408;28;20206;-52
2022/03/30 07:22:44;;;;;;;42.22;23.88;;;;;;;26.59;27.40;98980.88;5106892;28;20219;-53
2022/03/30 07:25:11;;;;;;;48.03;23.45;;;;;;;27.19;27.25;98983.47;5110431;28;20704;-52
2022/03/30 07:27:43;;;;;;;38.30;21.25;;;;;;;27.10;27.39;98977.25;5110076;28;20773;-52
2022/03/30 07:30:12;;;;;;;28.98;20.00;;;;;;;27.96;26.31;98962.72;5109798;28;20210;-52
2022/03/30 07:32:41;;;;;;;33.40;20.25;;;;;;;28.32;26.14;98979.22;5110052;28;20222;-53
2022/03/30 07:35:09;;;;;;;34.88;19.20;;;;;;;29.24;24.84;98981.19;5110403;28;20618;-52
2022/03/30 07:37:38;;;;;;;31.00;18.63;;;;;;;30.19;23.97;98979.03;5110023;28;20682;-52
2022/03/30 07:40:08;;;;;;;30.90;17.55;;;;;;;30.10;24.17;98983.63;5109922;28;20585;-53
2022/03/30 07:42:35;;;;;;;28.85;16.92;;;;;;;30.08;23.68;98985.66;5109915;28;20191;-51
2022/03/30 07:45:05;;;;;;;27.80;16.52;;;;;;;30.63;23.22;98976.41;5109939;28;20194;-52
2022/03/30 07:47:32;;;;;;;25.90;17.75;;;;;;;30.91;22.97;98968.53;5113860;28;20202;-53
2022/03/30 07:49:59;;;;;;;27.55;17.05;;;;;;;31.38;22.31;98978.78;5114609;28;20571;-53
2022/03/30 07:52:27;;;;;;;35.97;17.15;;;;;;;31.15;22.72;98976.28;5114205;28;20220;-53
2022/03/30 07:54:56;;;;;;;22.75;15.00;;;;;;;31.18;22.71;98975.06;5114127;28;20281;-52
2022/03/30 07:57:26;;;;;;;19.15;15.80;;;;;;;30.41;23.36;98978.13;5113662;28;20195;-53
2022/03/30 07:59:54;;;;;;;23.52;15.45;;;;;;;31.01;22.79;98969.91;5113225;28;20199;-52
2022/03/30 08:02:21;;;;;;;30.65;16.30;;;;;;;31.26;22.59;98978.47;5113931;28;20194;-53
2022/03/30 08:04:48;;;;;;;23.83;15.38;;;;;;;30.56;23.09;98979.00;5113905;28;20199;-53
2022/03/30 08:07:15;;;;;;;22.23;15.80;;;;;;;29.88;23.66;98974.59;5113928;28;20198;-52
2022/03/30 08:09:43;;;;;;;25.63;16.33;;;;;;;29.46;24.08;98972.41;5113910;28;20230;-53
2022/03/30 08:12:14;;;;;;;24.90;16.83;;;;;;;29.29;24.36;98960.13;5113499;28;20243;-53
2022/03/30 08:14:42;;;;;;;21.67;14.98;;;;;;;30.01;23.62;98954.47;5113622;28;20202;-53
2022/03/30 08:17:09;;;;;;;29.25;16.42;;;;;;;29.69;23.74;98961.69;5114482;27;20675;-52
2022/03/30 08:19:36;;;;;;;25.88;16.10;;;;;;;29.58;24.32;98944.22;5113252;28;20191;-52
2022/03/30 08:24:48;;;;;;;20.15;15.35;;;;;;;30.24;23.57;98956.06;5113538;28;20263;-52
2022/03/30 08:27:19;;;;;;;22.10;14.65;;;;;;;29.36;24.16;98963.75;5113673;28;20194;-53
2022/03/30 08:29:46;;;;;;;21.85;14.20;;;;;;;27.62;26.28;98961.06;5113780;28;20675;-52
2022/03/30 08:32:15;;;;;;;25.25;14.32;;;;;;;27.08;26.65;98955.31;5113264;28;20220;-52
2022/03/30 08:34:42;;;;;;;15.43;13.85;;;;;;;26.13;28.12;98950.13;5113355;28;20289;-52
2022/03/30 08:37:10;;;;;;;24.70;13.65;;;;;;;25.17;29.30;98954.44;5113086;28;20197;-53
2022/03/30 08:39:37;;;;;;;18.02;13.82;;;;;;;24.11;30.93;98948.72;5113606;28;20582;-52
2022/03/30 08:42:06;;;;;;;19.92;14.35;;;;;;;23.49;31.45;98942.91;5113276;28;20201;-51
2022/03/30 08:44:36;;;;;;;20.80;13.95;;;;;;;23.46;31.60;98919.38;5113504;28;20202;-52
2022/03/30 08:47:04;;;;;;;17.95;13.52;;;;;;;23.45;31.26;98930.09;5113278;28;20681;-52
2022/03/30 08:49:34;;;;;;;18.63;14.00;;;;;;;23.23;31.70;98925.09;5113161;28;20282;-52
2022/03/30 08:52:02;;;;;;;22.63;14.38;;;;;;;23.17;32.00;98923.81;5113022;28;20190;-52
2022/03/30 08:54:29;;;;;;;22.70;14.35;;;;;;;23.24;32.06;98921.47;5112975;28;20198;-52
2022/03/30 08:56:56;;;;;;;21.55;13.27;;;;;;;23.18;32.51;98913.09;5112243;28;20304;-51
2022/03/30 08:59:24;;;;;;;24.40;14.63;;;;;;;23.47;32.09;98910.47;5112432;28;20736;-53
2022/03/30 09:01:56;;;;;;;34.72;16.02;;;;;;;23.40;32.39;98909.31;5112845;28;20202;-52
2022/03/30 09:04:23;;;;;;;29.67;15.80;;;;;;;23.52;32.44;98915.34;5112939;28;20682;-54
2022/03/30 09:06:53;;;;;;;25.85;14.95;;;;;;;23.54;32.26;98897.50;5112480;28;20230;-53
2022/03/30 09:09:29;;;;;;;22.88;14.88;;;;;;;23.38;32.65;98886.59;5112729;28;20202;-51
2022/03/30 09:11:56;;;;;;;26.65;17.17;;;;;;;23.13;33.18;98886.22;5112471;28;20197;-51
2022/03/30 09:14:26;;;;;;;16.80;13.05;;;;;;;23.12;33.23;98887.19;5112401;28;20305;-51
2022/03/30 09:16:57;;;;;;;19.00;13.18;;;;;;;23.04;33.16;98888.81;5112382;28;20230;-52
2022/03/30 09:19:24;;;;;;;25.80;12.55;;;;;;;23.15;32.96;98881.59;5112927;28;20590;-52
2022/03/30 09:21:53;;;;;;;18.90;13.05;;;;;;;23.36;33.11;98888.56;5112448;28;20597;-53
2022/03/30 09:24:22;;;;;;;20.98;12.52;;;;;;;23.48;32.83;98871.53;5112080;28;20277;-52
2022/03/30 09:26:51;;;;;;;14.45;12.85;;;;;;;23.53;32.30;98866.69;5112725;28;20190;-53
2022/03/30 09:29:20;;;;;;;28.38;14.30;;;;;;;23.20;34.18;98862.66;5112076;28;20198;-52
2022/03/30 09:31:49;;;;;;;19.67;12.25;;;;;;;23.03;33.77;98856.22;5112120;28;20199;-53
2022/03/30 09:34:18;;;;;;;21.70;12.93;;;;;;;23.50;32.76;98845.78;5112053;28;20313;-53
2022/03/30 09:36:46;;;;;;;16.58;12.32;;;;;;;23.56;33.17;98855.81;5111987;28;20194;-52
2022/03/30 09:39:29;;;;;;;15.90;12.02;;;;;;;23.45;32.87;98843.53;5111861;28;20202;-53
2022/03/30 09:41:58;;;;;;;17.90;11.43;;;;;;;23.26;35.29;98834.75;5111627;28;20191;-52
2022/03/30 09:44:26;;;;;;;21.48;11.30;;;;;;;23.14;34.79;98839.34;5111888;28;20186;-53
2022/03/30 09:46:56;;;;;;;15.57;11.75;;;;;;;23.41;33.12;98833.34;5112152;28;20615;-52
2022/03/30 09:49:42;;;;;;;20.42;12.10;;;;;;;23.38;33.01;98826.53;5111921;28;20292;-52
2022/03/30 09:52:14;;;;;;;15.88;12.38;;;;;;;23.36;32.33;98809.13;5111724;28;20576;-52
2022/03/30 09:54:42;;;;;;;17.17;12.25;;;;;;;23.02;32.84;98812.22;5107377;27;20206;-52
2022/03/30 09:57:11;;;;;;;15.75;11.00;;;;;;;22.82;33.59;98810.53;5110929;27;20585;-53
2022/03/30 10:00:02;;;;;;;16.60;12.00;;;;;;;22.60;34.01;98805.47;5114098;27;20281;-53
2022/03/30 10:02:31;;;;;;;15.55;11.82;;;;;;;22.29;34.09;98802.06;5131720;27;20281;-51
2022/03/30 10:05:00;;;;;;;19.08;12.48;;;;;;;22.15;34.06;98794.50;5131796;27;20204;-53
2022/03/30 10:07:29;;;;;;;18.90;11.88;;;;;;;22.15;34.18;98795.34;5131759;27;20190;-53
2022/03/30 10:09:57;;;;;;;15.23;12.02;;;;;;;21.90;34.27;98786.03;5131455;27;20666;-52
2022/03/30 10:12:25;;;;;;;13.55;12.00;;;;;;;21.76;34.68;98789.06;5131470;27;20685;-52
2022/03/30 10:14:54;;;;;;;14.27;12.02;;;;;;;21.69;34.58;98785.25;5131603;27;20198;-53
2022/03/30 10:17:22;;;;;;;17.95;12.13;;;;;;;21.63;35.25;98778.72;5131252;27;20230;-53
2022/03/30 10:19:52;;;;;;;17.08;12.55;;;;;;;21.57;35.07;98763.38;5131689;27;20592;-53
2022/03/30 10:22:55;;;;;;;18.23;11.35;;;;;;;21.65;33.22;98782.06;5131675;27;20293;-53
2022/03/30 10:25:35;;;;;;;16.02;11.27;;;;;;;21.50;33.48;98788.66;5131315;27;20289;-53
2022/03/30 10:28:15;;;;;;;16.25;11.45;;;;;;;21.68;33.85;98797.63;5131480;27;20198;-53
2022/03/30 10:30:44;;;;;;;17.10;12.05;;;;;;;21.81;33.69;98796.56;5131586;27;20208;-52
2022/03/30 10:33:12;;;;;;;14.27;10.77;;;;;;;21.73;33.03;98795.44;5131416;27;20218;-51
2022/03/30 10:35:41;;;;;;;16.85;12.32;;;;;;;21.80;33.11;98784.34;5131392;27;20246;-52
2022/03/30 10:38:11;;;;;;;17.52;11.65;;;;;;;21.99;33.14;98784.47;5130554;27;20204;-52
2022/03/30 10:40:39;;;;;;;24.38;12.63;;;;;;;22.24;33.30;98788.41;5131355;27;20190;-52
2022/03/30 10:43:08;;;;;;;13.40;11.35;;;;;;;22.36;33.32;98772.28;5130223;27;20196;-52
2022/03/30 10:45:50;;;;;;;20.67;11.50;;;;;;;22.42;33.45;98766.47;5131520;27;20241;-52
2022/03/30 10:48:23;;;;;;;16.55;11.80;;;;;;;22.25;33.08;98761.84;5131168;27;20190;-54
2022/03/30 10:50:53;;;;;;;21.08;11.45;;;;;;;22.11;33.30;98756.97;5131315;27;20201;-54
2022/03/30 10:53:42;;;;;;;19.55;11.57;;;;;;;22.00;32.63;98763.19;5131035;27;20221;-53
2022/03/30 10:56:32;;;;;;;17.60;11.13;;;;;;;21.94;32.32;98747.00;5131434;27;20619;-54
2022/03/30 10:59:15;;;;;;;16.70;12.52;;;;;;;21.87;32.76;98745.88;5131859;27;20194;-54
2022/03/30 11:01:43;;;;;;;14.18;11.40;;;;;;;21.85;32.90;98734.59;5130011;27;20186;-52
2022/03/30 11:04:26;;;;;;;18.38;12.07;;;;;;;21.79;33.22;98721.91;5130893;27;20194;-52
2022/03/30 11:07:36;;;;;;;28.73;15.48;;;;;;;21.77;32.90;98716.78;5130935;27;20226;-52
2022/03/30 11:10:27;;;;;;;19.27;12.68;;;;;;;21.82;32.16;98719.00;5131079;27;20198;-52
2022/03/30 11:13:02;;;;;;;17.90;12.00;;;;;;;21.78;32.54;98717.63;5098124;27;20276;-52
2022/03/30 11:15:30;;;;;;;19.73;12.30;;;;;;;21.88;32.15;98702.63;5130834;27;20269;-52
2022/03/30 11:18:18;;;;;;;15.63;12.00;;;;;;;21.99;32.22;98694.63;5130820;27;20229;-52
2022/03/30 11:21:17;;;;;;;17.52;11.50;;;;;;;21.99;32.43;98706.03;5130195;27;20738;-52
2022/03/30 11:24:05;;;;;;;15.70;11.27;;;;;;;21.87;32.15;98693.03;5130907;28;20197;-53
2022/03/30 11:27:20;;;;;;;25.52;12.52;;;;;;;21.91;32.19;98686.47;5131123;28;20190;-53
2022/03/30 11:29:59;;;;;;;20.15;11.90;;;;;;;21.93;32.03;98668.69;5112409;28;20612;-52
2022/03/30 11:32:58;;;;;;;16.02;11.80;;;;;;;22.12;32.02;98663.50;5109455;28;20677;-53
2022/03/30 11:35:29;;;;;;;16.52;12.25;;;;;;;22.20;32.64;98639.00;5109685;28;20786;-53
2022/03/30 11:38:10;;;;;;;16.17;11.52;;;;;;;22.43;32.31;98646.53;5110097;28;20186;-52